ZBTJ

Tianjin Binhai International Airport

Tianjin, China
TAF ZBTJ 161526Z 1618/1718 18004MPS 5000 HZ NSC TX34/1707Z TN27/1621Z TEMPO 1618/1624 -TSRA FEW030CB
Issued Valid From Valid To
Jul-16 @ 15:26 UTC
(5 hours ago)
Jul-16 @ 18:00 UTC
(2 hours ago)
Jul-17 @ 18:00 UTC
(in 22 hours)
Jul-16 @ 18:00 to Jul-17 @ 18:00
TAF ZBTJ 161526Z 1618/1718 18004MPS 5000 HZ NSC TX34/1707Z TN27/1621Z
Wind Visibility Clouds Conditions
180° at 8 knots 5,005 meters
  • No significant clouds
  • Haze
Temporary Jul-16 @ 18:00 to Jul-17 @ 00:00
TEMPO 1618/1624 -TSRA FEW030CB
Clouds Conditions
  • Few at 3,000' AGL
  • Light Thunderstorm
  • Light Rain
TAF ZBTJ 161526Z 1618/1718 18004MPS 5000 HZ NSC TX34/1707Z TN27/1621Z TEMPO 1618/1624 -TSRA FEW030CB
Issued Jul-16 @ 15:26 UTC
(5 hours ago)
Valid From Jul-16 @ 18:00 UTC
(2 hours ago)
Valid To Jul-17 @ 18:00 UTC
(in 22 hours)
Jul-16 @ 18:00 - Jul-17 @ 18:00
Wind Visibility
180° at 8 knots 5,005 meters
Clouds
  • No significant clouds
Conditions
  • Haze
Temporary Jul-16 @ 18:00 - Jul-17 @ 00:00
Clouds
  • Few at 3,000' AGL
Conditions
  • Light Thunderstorm
  • Light Rain